Portada
METAR-TAF:

METAR-TAF

Aeroports :

Banjarmasin, Indonèsia

latitud: 03-26-32S, longitud: 114-45-45E, altitud: 20 m

Observació

L'informe es va fer fa 4 hores i 28 minuts, a les 13:30 UTC
Vent 2 kt del Sud
Temperatura 27°C
Humitat 74%
Pressió 1010 hPa
Visibilitat: 6000 m

METAR: WAOO 211330Z 18002KT 6000 NCD 27/22 Q1010

Hora: 00:58 (17:58 UTC)

Pronòstic

L'informe es va fer fa 58 minuts, a les 17:00 UTC
Pronòstic vàlid del 21 a les 18 UTC al 22 a les 18 UTC
Vent 8 kt del Sud
Visibilitat: 7000 m
Escasses núvols a una alçada de 2000 ft
Temporalment
l' 21 a les 22 UTC al 22 a les 02 UTC
Visibilitat: 1000 m
fum

TAF: WAOO 211700Z 2118/2218 18008KT 7000 FEW020 TEMPO 2122/2202 1000 FU

Observacions i pronòstics meteorològics de més de 4000 aeroports (METAR i TAF).

Les estacions disponibles són els punts grocs i vermells al mapa.

Posi el ratolí al punt desitjat per veure el nom de l'estació.

Feu clic per veure les observacions i els pronòstics meteorològics.

Per canviar el mapa: feu clic els botons verds amb una creu de color negre per apropar; al botó verd amb un guió per allunyar la imatge; o en les fletxes verdes per a mapes adjacents.


METAR-TAF: